DNO773 LGST-LGKS

Flight info

Callsign DNO773
Flight time 0h 15m
Altitude 5000
Route MOKIS
Aircraft B36T/L-BDFGLORY/S

Departure

Time 2026-04-20 18:25
Airport Sitia Airport (LGST)

Arrival

Time 2026-04-20 18:40
Airport Kasos Airport (LGKS)
Time Latitude Longitude Altitude Speed Heading
2026-04-20 18:19 35.21603 26.09794 354 ft 0 kts 91°
2026-04-20 18:23 35.21603 26.09825 354 ft 1 kts 90°
2026-04-20 18:23 35.21605 26.09869 354 ft 14 kts 86°
2026-04-20 18:24 35.21606 26.10002 350 ft 19 kts 93°
2026-04-20 18:24 35.21496 26.09944 352 ft 49 kts 231°
2026-04-20 18:24 35.21102 26.09410 542 ft 107 kts 227°
2026-04-20 18:24 35.20266 26.09162 812 ft 148 kts 169°
2026-04-20 18:25 35.19417 26.10008 1092 ft 171 kts 118°
2026-04-20 18:25 35.19269 26.11443 1360 ft 175 kts 73°
2026-04-20 18:25 35.19947 26.12629 1629 ft 173 kts 31°
2026-04-20 18:25 35.20967 26.13334 1883 ft 170 kts 24°
2026-04-20 18:26 35.21952 26.14141 2139 ft 172 kts 36°
2026-04-20 18:26 35.22776 26.15221 2399 ft 176 kts 48°
2026-04-20 18:26 35.23316 26.16606 2646 ft 183 kts 67°
2026-04-20 18:26 35.23685 26.18099 2900 ft 183 kts 70°
2026-04-20 18:27 35.24051 26.19594 3152 ft 183 kts 68°
2026-04-20 18:27 35.24430 26.21081 3402 ft 183 kts 68°
2026-04-20 18:27 35.24812 26.22566 3658 ft 184 kts 68°
2026-04-20 18:27 35.25198 26.24073 3903 ft 186 kts 68°
2026-04-20 18:28 35.25584 26.25579 4153 ft 185 kts 68°
2026-04-20 18:28 35.25964 26.27062 4416 ft 185 kts 68°
2026-04-20 18:28 35.26345 26.28551 4669 ft 182 kts 68°
2026-04-20 18:28 35.26722 26.30026 4915 ft 181 kts 67°
2026-04-20 18:29 35.27109 26.31527 4968 ft 189 kts 68°
2026-04-20 18:29 35.27485 26.33028 4966 ft 179 kts 68°
2026-04-20 18:29 35.27856 26.34471 4965 ft 177 kts 67°
2026-04-20 18:29 35.28223 26.35899 4965 ft 175 kts 67°
2026-04-20 18:30 35.28585 26.37318 4962 ft 174 kts 67°
2026-04-20 18:30 35.28946 26.38731 4962 ft 174 kts 67°
2026-04-20 18:30 35.29305 26.40143 4962 ft 174 kts 67°
2026-04-20 18:30 35.29665 26.41554 4964 ft 173 kts 67°
2026-04-20 18:31 35.30023 26.42960 4968 ft 173 kts 67°
2026-04-20 18:31 35.30381 26.44365 4968 ft 173 kts 67°
2026-04-20 18:31 35.30733 26.45756 5103 ft 168 kts 66°
2026-04-20 18:31 35.31097 26.47173 4962 ft 177 kts 68°
2026-04-20 18:32 35.31462 26.48622 4842 ft 178 kts 67°
2026-04-20 18:32 35.31827 26.50058 4719 ft 179 kts 68°
2026-04-20 18:32 35.32197 26.51518 4591 ft 179 kts 67°
2026-04-20 18:32 35.32567 26.52971 4469 ft 179 kts 67°
2026-04-20 18:33 35.32936 26.54431 4342 ft 179 kts 68°
2026-04-20 18:33 35.33305 26.55887 4214 ft 179 kts 67°
2026-04-20 18:33 35.33674 26.57345 4095 ft 179 kts 67°
2026-04-20 18:33 35.34037 26.58781 3981 ft 177 kts 67°
2026-04-20 18:34 35.34399 26.60213 3880 ft 176 kts 66°
2026-04-20 18:34 35.34762 26.61647 3783 ft 176 kts 66°
2026-04-20 18:34 35.35124 26.63079 3675 ft 176 kts 67°
2026-04-20 18:34 35.35486 26.64510 3571 ft 176 kts 67°
2026-04-20 18:35 35.35847 26.65945 3473 ft 176 kts 66°
2026-04-20 18:35 35.36210 26.67380 3374 ft 176 kts 66°
2026-04-20 18:35 35.36572 26.68817 3274 ft 177 kts 67°
2026-04-20 18:35 35.36934 26.70259 3174 ft 176 kts 66°
2026-04-20 18:36 35.37296 26.71695 3075 ft 176 kts 66°
2026-04-20 18:36 35.37659 26.73135 2975 ft 176 kts 67°
2026-04-20 18:36 35.38020 26.74570 2873 ft 177 kts 67°
2026-04-20 18:36 35.38380 26.76006 2759 ft 171 kts 66°
2026-04-20 18:37 35.38721 26.77370 2631 ft 169 kts 66°
2026-04-20 18:37 35.39064 26.78734 2498 ft 162 kts 66°
2026-04-20 18:37 35.39393 26.79991 2297 ft 152 kts 63°
2026-04-20 18:37 35.39785 26.81200 1992 ft 154 kts 59°
2026-04-20 18:38 35.40196 26.82426 1680 ft 155 kts 59°
2026-04-20 18:38 35.40640 26.83580 1586 ft 144 kts 54°
2026-04-20 18:38 35.41096 26.84682 1428 ft 146 kts 56°
2026-04-20 18:38 35.41567 26.85810 1236 ft 149 kts 56°
2026-04-20 18:39 35.42027 26.86933 1092 ft 146 kts 53°
2026-04-20 18:39 35.42186 26.88043 682 ft 123 kts 91°
2026-04-20 18:39 35.42192 26.89000 282 ft 102 kts 88°
2026-04-20 18:39 35.42169 26.89890 96 ft 107 kts 87°
2026-04-20 18:40 35.42145 26.90734 30 ft 90 kts 90°
2026-04-20 18:40 35.42131 26.91227 29 ft 28 kts 90°
2026-04-20 18:40 35.42104 26.91306 28 ft 0 kts 133°